WetterOnline ( https://www.wetteronline.at )

Wetter aktuell Oldsum

Aktuelles Wetter: List/Sylt (29m)

6-stündlich | Neueste Meldungen
Ortszeit Temperatur Wetter
Mo, 06.02. 1:00 4.6° C bedeckt
So, 05.02. 19:00 4.6° C wolkig
So, 05.02. 13:00 6.5° C wolkenlos
So, 05.02. 7:00 1.7° C leichter Regen
So, 05.02. 1:00 2.4° C bedeckt
Sa, 04.02. 19:00 2.3° C bedeckt
Sa, 04.02. 13:00 3.1° C bedeckt
Sa, 04.02. 7:00 1.2° C bedeckt
Ortszeit Temperatur Wetter
Mo, 06.02. 4:30 3.6° C leicht bewölkt
Mo, 06.02. 4:20 3.6° C leicht bewölkt
Mo, 06.02. 4:10 3.9° C Dunst
Mo, 06.02. 4:00 4.4° C leicht bewölkt
Mo, 06.02. 3:50 4.4° C leicht bewölkt
Mo, 06.02. 3:40 4.5° C wolkig
Mo, 06.02. 3:30 5.0° C wolkig
Mo, 06.02. 3:00 5.1° C bewölkt
Mo, 06.02. 2:30 4.9° C bedeckt
Mo, 06.02. 2:00 4.4° C bedeckt
Mo, 06.02. 1:30 4.3° C bedeckt
Ortszeit Relative Feuchte Sichtweite
Mo, 06.02. 1:00 95% 12 km
So, 05.02. 19:00 89% 11 km
So, 05.02. 13:00 89% 13 km
So, 05.02. 7:00 94% 12 km
So, 05.02. 1:00 84% 40 km
Sa, 04.02. 19:00 82% 65 km
Sa, 04.02. 13:00 79% 40 km
Sa, 04.02. 7:00 91% 30 km
Ortszeit Relative Feuchte Sichtweite
Mo, 06.02. 4:30 99% 8 km
Mo, 06.02. 4:20 99% -
Mo, 06.02. 4:10 99% -
Mo, 06.02. 4:00 98% 8 km
Mo, 06.02. 3:50 98% -
Mo, 06.02. 3:40 97% -
Mo, 06.02. 3:30 97% 10 km
Mo, 06.02. 3:00 97% 11 km
Mo, 06.02. 2:30 97% 9 km
Mo, 06.02. 2:00 97% 8 km
Mo, 06.02. 1:30 96% 9 km
Ortszeit Niederschlagsmenge Niederschlagsart
Mo, 06.02. 1:00 0.0 l/m2 in 6 Std. -
So, 05.02. 19:00 0.6 l/m2 in 12 Std. -
So, 05.02. 13:00 0.6 l/m2 in 6 Std. Regen
So, 05.02. 7:00 0.3 l/m2 in 12 Std. Schnee, Regen
So, 05.02. 1:00 0.0 l/m2 in 6 Std. -
Sa, 04.02. 19:00 0.0 l/m2 in 12 Std. -
Sa, 04.02. 13:00 0.0 l/m2 in 6 Std. -
Sa, 04.02. 7:00 0.1 l/m2 in 12 Std. -
Ortszeit Niederschlagsmenge Niederschlagsart
Mo, 06.02. 4:30 0.0 l/m2 in 30 Min -
Mo, 06.02. 4:20 keine Meldung -
Mo, 06.02. 4:10 keine Meldung -
Mo, 06.02. 4:00 0.0 l/m2 in 1 Std. -
Mo, 06.02. 3:50 keine Meldung -
Mo, 06.02. 3:40 keine Meldung -
Mo, 06.02. 3:30 0.0 l/m2 in 30 Min -
Mo, 06.02. 3:00 0.0 l/m2 in 1 Std. -
Mo, 06.02. 2:30 0.0 l/m2 in 30 Min -
Mo, 06.02. 2:00 0.0 l/m2 in 1 Std. -
Mo, 06.02. 1:30 0.0 l/m2 in 30 Min -
Ortszeit Stärke Spitze Richtung
km/h Bft. km/h Grad Sektor
Mo, 06.02. 1:00 17 3 41 320° NW
So, 05.02. 19:00 36 5 47 340° N
So, 05.02. 13:00 26 4 41 340° N
So, 05.02. 7:00 33 5 52 170° S
So, 05.02. 1:00 39 6 48 160° S
Sa, 04.02. 19:00 22 4 32 130° SO
Sa, 04.02. 13:00 17 3 26 130° SO
Sa, 04.02. 7:00 13 3 24 70° O
Ortszeit Stärke Spitze Richtung
km/h Bft. km/h Grad Sektor
Mo, 06.02. 4:30 13 3 19 330° NW
Mo, 06.02. 4:20 13 3 - 330° NW
Mo, 06.02. 4:10 14 3 - 320° NW
Mo, 06.02. 4:00 15 3 28 330° NW
Mo, 06.02. 3:50 15 3 - 330° NW
Mo, 06.02. 3:40 17 3 - 320° NW
Mo, 06.02. 3:30 22 4 29 320° NW
Mo, 06.02. 3:00 25 4 32 320° NW
Mo, 06.02. 2:30 24 4 30 310° NW
Mo, 06.02. 2:00 17 3 24 310° NW
Mo, 06.02. 1:30 15 3 24 300° NW
Ortszeit Untergrenze Bedeckung Gattung
total tief tief mittel hoch
Mo, 06.02. 1:00 4800 m 8/8 8/8 - - -
So, 05.02. 19:00 7200 m 8/8 0/8 - - -
So, 05.02. 13:00 - 0/8 0/8 - - -
So, 05.02. 7:00 210 m 8/8 8/8 - - -
So, 05.02. 1:00 1440 m 8/8 8/8 - - -
Sa, 04.02. 19:00 2700 m 8/8 8/8 - - -
Sa, 04.02. 13:00 4200 m 8/8 8/8 - - -
Sa, 04.02. 7:00 3900 m 8/8 8/8 - - -
Ortszeit Bedeckungsgrad in Achtel und Wolkenuntergrenze
Mo, 06.02. 4:30 4(4500m)
Mo, 06.02. 4:20 4(4500m)
Mo, 06.02. 4:10 keine Wolken
Mo, 06.02. 4:00 3(990m) 3(5400m)
Mo, 06.02. 3:50 3(990m) 3(5400m)
Mo, 06.02. 3:40 6
Mo, 06.02. 3:30 3(570m) 5(1080m) 7(5700m)
Mo, 06.02. 3:00 6(390m) 7(5700m)
Mo, 06.02. 2:30 7(3300m) 7(4200m) 8(5700m)
Mo, 06.02. 2:00 3(3300m) 7(4500m) 8(5100m)
Mo, 06.02. 1:30 1(3600m) 8(4200m) 8(5700m)
Ortszeit Luftdruck NN (hPa) Tendenz (hPa in 3 Std.)
Mo, 06.02. 1:00 1041 + 0,5
So, 05.02. 19:00 1039 + 1,8
So, 05.02. 13:00 1035 + 1,2
So, 05.02. 7:00 1033 - 0,5
So, 05.02. 1:00 1036 - 1,7
Sa, 04.02. 19:00 1039 + 0,2
Sa, 04.02. 13:00 1039 + 1,0
Sa, 04.02. 7:00 1035 + 2,6
Ortszeit Luftdruck NN (hPa) Tendenz (hPa in 3 Std.)
Mo, 06.02. 4:30 1041 + 0,1
Mo, 06.02. 4:20 1041 keine Meldung
Mo, 06.02. 4:10 1041 keine Meldung
Mo, 06.02. 4:00 1041 - 0,1
Mo, 06.02. 3:50 1041 keine Meldung
Mo, 06.02. 3:40 1041 keine Meldung
Mo, 06.02. 3:30 1041 - 0,1
Mo, 06.02. 3:00 1041 + 0,1
Mo, 06.02. 2:30 1041 - 0,1
Mo, 06.02. 2:00 1041 - 0,2
Mo, 06.02. 1:30 1041 0,0
Ortszeit Schneehöhe (cm)
Mo, 06.02. 1:00 0
So, 05.02. 19:00 0
So, 05.02. 13:00 0
So, 05.02. 7:00 0
So, 05.02. 1:00 0
Sa, 04.02. 19:00 0
Sa, 04.02. 13:00 0
Sa, 04.02. 7:00 0
Ortszeit Schneehöhe (cm)
Mo, 06.02. 4:30 0
Mo, 06.02. 4:20 0
Mo, 06.02. 4:10 0
Mo, 06.02. 4:00 0
Mo, 06.02. 3:50 0
Mo, 06.02. 3:40 0
Mo, 06.02. 3:30 0
Mo, 06.02. 3:00 0
Mo, 06.02. 2:30 0
Mo, 06.02. 2:00 0
Mo, 06.02. 1:30 0
Link zu dieser Seite / Seite empfehlen

Das Wetter in ...